Time;durP1;ratioP1;P1;durP2;ratioP2;P2;SDS_P1;SDS_P2;PMS_P1;PMS_P2;Temp;Humidity;BMP_temperature;BMP_pressure;BME280_temperature;BME280_humidity;BME280_pressure;Samples;Min_cycle;Max_cycle;Signal;HPM_P1;HPM_P2
2023/05/24 00:00:01;;;;;;;17.47;6.17;;;13.00;69.70;;;15.73;48.72;102079.19;5054010;28;20263;-67
2023/05/24 00:02:28;;;;;;;15.70;5.67;;;13.00;70.00;;;15.69;48.92;102084.00;5053899;28;20259;-68
2023/05/24 00:04:55;;;;;;;17.13;5.77;;;12.90;69.90;;;15.66;49.42;102080.88;5053458;28;20636;-67
2023/05/24 00:07:22;;;;;;;16.87;5.80;;;12.90;70.30;;;15.64;48.92;102081.06;5049921;28;20238;-68
2023/05/24 00:09:48;;;;;;;13.53;5.27;;;12.90;70.30;;;15.60;49.14;102077.09;5033912;28;20542;-67
2023/05/24 00:12:16;;;;;;;17.50;5.43;;;12.80;70.30;;;15.56;49.29;102079.28;5033942;28;20270;-67
2023/05/24 00:14:43;;;;;;;17.90;5.80;;;12.80;70.60;;;15.57;49.54;102085.38;5041341;28;20272;-67
2023/05/24 00:17:11;;;;;;;16.00;5.70;;;12.80;70.70;;;15.59;49.59;102080.75;5053958;28;20219;-67
2023/05/24 00:19:39;;;;;;;20.57;5.47;;;12.80;70.70;;;15.57;49.56;102069.47;5053293;28;20232;-67
2023/05/24 00:22:05;;;;;;;13.67;5.40;;;12.80;70.80;;;15.56;49.22;102073.97;5053779;28;20193;-67
2023/05/24 00:24:32;;;;;;;17.30;5.73;;;12.80;70.70;;;15.58;49.44;102076.44;5054078;28;20259;-66
2023/05/24 00:26:59;;;;;;;16.80;5.30;;;12.70;70.90;;;15.64;49.71;102077.59;5055527;28;20208;-68
2023/05/24 00:29:27;;;;;;;16.33;6.07;;;12.80;71.00;;;15.66;49.41;102076.41;5055067;28;20278;-67
2023/05/24 00:31:57;;;;;;;20.30;5.50;;;12.80;71.00;;;15.68;49.42;102066.44;5055001;28;20185;-67
2023/05/24 00:34:26;;;;;;;14.07;5.90;;;12.80;70.90;;;15.68;49.31;102066.44;5053425;28;20221;-67
2023/05/24 00:36:53;;;;;;;17.50;5.93;;;12.80;70.90;;;15.65;49.29;102056.16;5054445;28;20194;-68
2023/05/24 00:39:20;;;;;;;18.93;5.83;;;12.80;70.80;;;15.61;49.17;102056.69;5054724;28;20194;-67
2023/05/24 00:41:47;;;;;;;20.33;5.63;;;12.70;70.80;;;15.58;49.50;102066.66;5053666;28;20193;-68
2023/05/24 00:44:14;;;;;;;20.03;6.50;;;12.70;71.30;;;15.59;49.48;102057.69;5054316;28;20355;-67
2023/05/24 00:46:41;;;;;;;16.77;6.33;;;12.70;71.20;;;15.59;49.67;102056.88;5056176;28;20678;-67
2023/05/24 00:49:09;;;;;;;23.47;6.63;;;12.70;71.30;;;15.58;49.51;102060.50;5055588;28;20280;-67
2023/05/24 00:51:37;;;;;;;22.23;6.20;;;12.70;71.30;;;15.59;49.69;102062.19;5055895;28;20217;-68
2023/05/24 00:54:05;;;;;;;16.00;6.17;;;12.70;71.40;;;15.57;49.53;102059.69;5055213;28;20202;-67
2023/05/24 00:56:33;;;;;;;16.27;5.67;;;12.70;71.50;;;15.56;49.75;102062.53;5057035;28;20193;-68
2023/05/24 00:59:00;;;;;;;17.23;5.87;;;12.70;71.60;;;15.55;49.48;102055.53;5056812;28;20225;-68
2023/05/24 01:01:29;;;;;;;17.57;5.73;;;12.70;71.70;;;15.54;49.90;102056.56;5058415;28;20696;-67
2023/05/24 01:03:58;;;;;;;17.87;5.63;;;12.60;71.70;;;15.51;49.76;102062.22;5056621;28;20190;-66
2023/05/24 01:06:26;;;;;;;24.73;6.10;;;12.60;71.70;;;15.49;50.17;102057.09;5057229;28;20206;-67
2023/05/24 01:09:12;;;;;;;23.00;6.37;;;12.60;72.00;;;15.43;49.69;102051.59;5057015;28;20297;-69
2023/05/24 01:11:55;;;;;;;17.17;6.67;;;12.60;72.00;;;15.40;49.72;102049.31;5057507;28;20198;-67
2023/05/24 01:14:33;;;;;;;18.53;6.47;;;12.60;72.10;;;15.41;50.14;102053.59;5054856;28;20231;-67
2023/05/24 01:17:08;;;;;;;20.30;6.30;;;12.50;72.20;;;15.41;49.99;102053.59;5053007;28;20265;-67
2023/05/24 01:19:58;;;;;;;19.37;6.10;;;12.50;72.30;;;15.37;50.14;102047.84;5052802;28;20648;-67
2023/05/24 01:22:56;;;;;;;18.83;5.87;;;12.50;72.40;;;15.36;50.08;102050.63;5052453;28;20205;-67
2023/05/24 01:25:52;;;;;;;17.83;6.87;;;12.50;72.20;;;15.34;50.31;102047.34;5052777;28;20312;-68
2023/05/24 01:28:23;;;;;;;12.73;5.87;;;12.50;72.30;;;15.37;50.00;102052.31;5052915;28;20190;-67
2023/05/24 01:30:51;;;;;;;22.30;5.87;;;12.50;72.20;;;15.39;50.38;102055.59;5054688;28;20654;-67
2023/05/24 01:33:18;;;;;;;17.73;5.80;;;12.50;72.40;;;15.39;50.14;102045.00;5055446;28;20216;-68
2023/05/24 01:35:45;;;;;;;15.50;5.50;;;12.50;72.50;;;15.40;50.22;102041.34;5056167;28;20216;-68
2023/05/24 01:38:13;;;;;;;14.67;5.33;;;12.50;72.50;;;15.40;50.31;102044.81;5055411;28;20290;-67
2023/05/24 01:40:40;;;;;;;19.90;6.60;;;12.50;72.70;;;15.43;50.45;102040.97;5055360;28;20268;-67
2023/05/24 01:43:20;;;;;;;17.33;5.50;;;12.50;72.80;;;15.42;49.97;102039.34;5054923;28;20201;-67
2023/05/24 01:46:08;;;;;;;17.50;5.40;;;12.50;72.70;;;15.39;50.36;102040.53;5055527;28;20741;-68
2023/05/24 01:48:52;;;;;;;19.83;5.57;;;12.50;72.60;;;15.41;50.26;102038.53;5056135;28;20646;-67
2023/05/24 01:51:25;;;;;;;19.53;5.60;;;12.50;72.90;;;15.45;50.49;102039.03;5056238;28;20902;-68
2023/05/24 01:53:56;;;;;;;20.00;6.50;;;12.50;72.60;;;15.47;50.19;102037.88;5055919;28;20278;-68
2023/05/24 01:56:28;;;;;;;16.93;5.53;;;12.50;72.50;;;15.48;50.13;102039.50;5056068;28;20305;-67
2023/05/24 01:58:57;;;;;;;19.40;6.07;;;12.60;72.80;;;15.50;50.25;102041.97;5055906;28;20263;-67
2023/05/24 02:01:27;;;;;;;20.33;6.77;;;12.60;72.60;;;15.51;50.04;102031.19;5039375;28;20225;-68
2023/05/24 02:03:54;;;;;;;15.67;7.03;;;12.60;72.60;;;15.51;49.95;102040.97;5050068;28;20192;-67
2023/05/24 02:06:21;;;;;;;17.03;6.37;;;12.60;72.60;;;15.51;50.12;102036.50;5055929;28;20553;-66
2023/05/24 02:08:48;;;;;;;16.70;6.07;;;12.50;72.50;;;15.50;50.25;102032.19;5056034;28;20206;-67
2023/05/24 02:11:15;;;;;;;18.67;5.70;;;12.60;72.80;;;15.49;50.16;102037.69;5056089;28;20349;-67
2023/05/24 02:13:42;;;;;;;14.57;5.90;;;12.50;72.60;;;15.47;50.34;102034.38;5055576;28;20312;-67
2023/05/24 02:16:09;;;;;;;19.50;5.93;;;12.50;72.80;;;15.45;50.27;102025.78;5055529;28;20218;-67
2023/05/24 02:18:39;;;;;;;12.97;5.20;;;12.50;72.60;;;15.49;50.54;102027.06;5055644;28;20205;-67
2023/05/24 02:21:05;;;;;;;18.33;5.67;;;12.60;73.00;;;15.52;50.46;102029.38;5055691;28;20210;-68
2023/05/24 02:23:32;;;;;;;21.07;6.40;;;12.60;72.90;;;15.55;50.26;102029.00;5055005;28;20281;-67
2023/05/24 02:26:00;;;;;;;16.40;5.30;;;12.60;72.90;;;15.56;50.33;102033.31;5055671;28;20252;-68
2023/05/24 02:28:28;;;;;;;15.43;5.27;;;12.60;73.00;;;15.55;50.01;102031.66;5055314;28;20693;-68
2023/05/24 02:30:55;;;;;;;12.07;5.07;;;12.60;72.90;;;15.56;50.26;102025.38;5055488;28;20190;-67
2023/05/24 02:33:24;;;;;;;22.23;6.67;;;12.60;73.00;;;15.57;50.28;102019.88;5054767;28;20190;-67
2023/05/24 02:35:52;;;;;;;22.00;6.30;;;12.60;72.90;;;15.58;50.22;102024.19;5055545;28;20654;-67
2023/05/24 02:38:19;;;;;;;18.17;6.10;;;12.60;73.00;;;15.56;50.33;102020.06;5055418;28;20198;-67
2023/05/24 02:40:47;;;;;;;19.90;5.70;;;12.60;73.00;;;15.57;50.35;102021.69;5055603;28;20206;-67
2023/05/24 02:43:13;;;;;;;19.73;5.97;;;12.60;73.10;;;15.58;50.40;102020.72;5053698;28;20204;-66
2023/05/24 02:45:40;;;;;;;17.43;6.13;;;12.60;73.10;;;15.57;50.67;102021.69;5055245;28;20202;-67
2023/05/24 02:48:07;;;;;;;15.70;5.77;;;12.60;73.20;;;15.58;50.57;102018.88;5047517;28;20194;-66
2023/05/24 02:50:35;;;;;;;15.50;6.53;;;12.60;73.30;;;15.58;50.36;102018.88;5035446;28;20655;-67
2023/05/24 02:53:04;;;;;;;15.00;5.73;;;12.60;73.20;;;15.63;50.64;102020.19;5034681;28;20194;-67
2023/05/24 02:55:31;;;;;;;13.10;5.70;;;12.70;73.40;;;15.63;50.30;102021.00;5053941;28;20299;-67
2023/05/24 02:57:58;;;;;;;15.07;5.90;;;12.70;73.50;;;15.63;50.63;102028.97;5035827;28;20256;-67
2023/05/24 03:00:25;;;;;;;20.80;5.60;;;12.60;73.30;;;15.64;50.81;102021.84;5033854;28;20321;-68
2023/05/24 03:02:52;;;;;;;19.53;6.07;;;12.60;73.40;;;15.64;50.26;102022.69;5040351;28;20186;-68
2023/05/24 03:05:19;;;;;;;17.37;5.40;;;12.70;73.40;;;15.62;50.50;102027.31;5055133;28;20577;-67
2023/05/24 03:07:46;;;;;;;16.00;5.00;;;12.70;73.30;;;15.62;50.24;102019.34;5053922;28;20194;-66
2023/05/24 03:10:15;;;;;;;18.50;5.47;;;12.70;73.20;;;15.60;50.42;102024.00;5054659;28;20232;-67
2023/05/24 03:12:42;;;;;;;17.57;6.73;;;12.70;73.30;;;15.61;50.85;102016.88;5054237;28;20189;-67
2023/05/24 03:15:10;;;;;;;18.00;5.63;;;12.70;73.30;;;15.59;50.39;102020.50;5052547;28;20328;-67
2023/05/24 03:17:37;;;;;;;21.63;5.83;;;12.70;73.20;;;15.59;50.44;102025.81;5054308;28;20236;-67
2023/05/24 03:20:06;;;;;;;15.77;5.73;;;12.70;73.20;;;15.59;50.46;102014.41;5054546;28;20280;-67
2023/05/24 03:22:33;;;;;;;24.27;6.33;;;12.70;73.20;;;15.59;50.32;102015.22;5054160;28;20236;-66
2023/05/24 03:25:00;;;;;;;16.63;5.30;;;12.70;73.20;;;15.58;50.89;102012.75;5053932;28;20213;-67
2023/05/24 03:27:29;;;;;;;21.03;6.27;;;12.60;73.10;;;15.59;50.32;102014.41;5054416;28;20251;-67
2023/05/24 03:29:56;;;;;;;20.87;6.50;;;12.60;73.30;;;15.61;50.66;102020.38;5054553;28;20220;-66
2023/05/24 03:32:22;;;;;;;14.03;5.07;;;12.60;73.30;;;15.63;50.68;102013.03;5054031;28;20217;-67
2023/05/24 03:34:49;;;;;;;16.50;5.67;;;12.70;73.40;;;15.65;50.60;102019.00;5053290;28;20321;-67
2023/05/24 03:37:16;;;;;;;14.63;4.70;;;12.70;73.30;;;15.67;50.12;102017.00;5054234;28;20186;-69
2023/05/24 03:39:43;;;;;;;15.37;5.90;;;12.70;73.20;;;15.67;50.32;102011.69;5054021;28;20273;-67
2023/05/24 03:42:10;;;;;;;12.23;5.10;;;12.70;73.10;;;15.70;50.30;102016.66;5053708;28;20248;-68
2023/05/24 03:44:39;;;;;;;12.90;5.20;;;12.70;73.00;;;15.73;50.16;102008.34;5053546;28;20218;-67
2023/05/24 03:47:06;;;;;;;11.13;5.17;;;12.70;73.00;;;15.76;50.10;102015.13;5052884;28;20662;-68
2023/05/24 03:49:33;;;;;;;18.47;5.50;;;12.70;73.00;;;15.77;49.58;102012.28;5053516;28;20221;-67
2023/05/24 03:52:00;;;;;;;17.43;5.40;;;12.80;73.00;;;15.79;50.16;102010.28;5053554;28;20198;-69
2023/05/24 03:54:27;;;;;;;19.33;6.57;;;12.80;73.00;;;15.77;50.01;102017.59;5053180;28;20640;-68
2023/05/24 03:56:54;;;;;;;14.93;5.23;;;12.80;72.90;;;15.75;50.11;102013.47;5053964;28;20196;-69
2023/05/24 03:59:21;;;;;;;14.43;5.13;;;12.80;72.90;;;15.71;50.17;102009.50;5053716;28;20247;-68
2023/05/24 04:01:50;;;;;;;14.07;5.00;;;12.80;72.80;;;15.69;50.17;102014.97;5053639;28;20213;-69
2023/05/24 04:04:17;;;;;;;17.33;5.40;;;12.70;72.80;;;15.66;50.41;102010.03;5053065;28;20230;-68
2023/05/24 04:06:44;;;;;;;17.37;5.73;;;12.70;72.80;;;15.65;50.50;102016.34;5053874;28;20189;-69
2023/05/24 04:09:11;;;;;;;19.23;5.33;;;12.70;73.00;;;15.65;50.33;102016.34;5053323;28;20285;-68
2023/05/24 04:11:38;;;;;;;14.87;5.63;;;12.70;73.00;;;15.67;50.02;102006.38;5054124;28;20277;-68
2023/05/24 04:14:05;;;;;;;16.03;4.77;;;12.70;73.10;;;15.68;50.35;102010.69;5052584;28;20311;-66
2023/05/24 04:16:34;;;;;;;20.33;5.77;;;12.70;73.10;;;15.70;50.17;102014.00;5053764;28;20203;-66
2023/05/24 04:19:03;;;;;;;16.97;5.17;;;12.70;73.20;;;15.71;50.64;102007.69;5053707;28;20183;-67
2023/05/24 04:21:32;;;;;;;10.57;5.40;;;12.70;73.40;;;15.76;50.53;102015.94;5052063;28;20257;-67
2023/05/24 04:24:00;;;;;;;19.13;6.10;;;12.70;73.50;;;15.86;51.12;102019.19;5052985;28;20182;-67
2023/05/24 04:26:28;;;;;;;14.40;5.37;;;12.80;73.80;;;15.96;50.47;102017.13;5053356;28;20189;-66
2023/05/24 04:28:55;;;;;;;13.40;5.37;;;12.90;73.40;;;16.03;50.10;102020.72;5053198;28;20193;-67
2023/05/24 04:31:22;;;;;;;11.90;4.73;;;13.00;73.20;;;16.09;50.24;102027.94;5053332;28;20268;-68
2023/05/24 04:33:49;;;;;;;15.73;4.90;;;13.00;73.20;;;16.17;49.96;102019.94;5052686;28;20205;-68
2023/05/24 04:36:18;;;;;;;16.77;5.07;;;13.10;73.00;;;16.21;49.92;102029.19;5054020;28;20221;-68
2023/05/24 04:38:45;;;;;;;17.93;5.57;;;13.10;72.90;;;16.26;49.78;102033.94;5054563;28;20615;-67
2023/05/24 04:41:12;;;;;;;15.83;5.43;;;13.20;72.90;;;16.32;49.70;102029.75;5053053;28;20249;-69
2023/05/24 04:43:39;;;;;;;13.73;4.83;;;13.20;72.60;;;16.36;49.68;102036.34;5053020;28;20188;-67
2023/05/24 04:46:06;;;;;;;17.83;4.93;;;13.30;72.60;;;16.39;49.60;102043.97;5053577;28;20263;-67
2023/05/24 04:48:35;;;;;;;13.27;6.07;;;13.30;72.10;;;16.38;48.99;102034.38;5053263;28;20198;-67
2023/05/24 04:51:03;;;;;;;13.47;5.03;;;13.30;71.80;;;16.36;49.32;102037.19;5053234;28;20271;-68
2023/05/24 04:53:31;;;;;;;17.13;5.67;;;13.30;71.70;;;16.34;49.32;102035.72;5052653;28;20194;-68
2023/05/24 04:55:58;;;;;;;16.07;5.47;;;13.30;71.70;;;16.34;49.33;102041.03;5051954;28;20218;-68
2023/05/24 04:58:25;;;;;;;16.67;5.73;;;13.30;71.80;;;16.33;49.19;102045.50;5052875;28;20328;-67
2023/05/24 05:00:52;;;;;;;19.13;6.30;;;13.30;71.90;;;16.33;49.59;102039.41;5052907;28;20213;-68
2023/05/24 05:03:19;;;;;;;15.20;4.70;;;13.30;72.20;;;16.35;49.34;102037.38;5052788;28;20530;-69
2023/05/24 05:05:46;;;;;;;10.93;4.50;;;13.30;72.00;;;16.34;49.26;102041.88;5054474;28;20214;-67
2023/05/24 05:08:14;;;;;;;16.43;5.73;;;13.30;72.00;;;16.34;49.45;102041.88;5056630;28;20281;-69
2023/05/24 05:10:42;;;;;;;17.73;6.00;;;13.30;71.90;;;16.34;49.33;102044.53;5055970;28;20253;-67
2023/05/24 05:13:10;;;;;;;15.50;4.90;;;13.30;71.90;;;16.34;49.44;102041.03;5056540;28;20252;-67
2023/05/24 05:15:37;;;;;;;11.27;4.73;;;13.30;72.10;;;16.34;49.34;102054.31;5056240;28;20237;-67
2023/05/24 05:18:04;;;;;;;19.93;5.60;;;13.30;72.30;;;16.34;49.57;102055.16;5056503;28;20716;-70
2023/05/24 05:20:31;;;;;;;14.57;5.60;;;13.30;72.70;;;16.35;49.92;102048.00;5056977;28;20198;-68
2023/05/24 05:22:59;;;;;;;15.17;5.50;;;13.30;73.10;;;16.36;49.96;102052.31;5056927;28;20210;-69
2023/05/24 05:25:26;;;;;;;14.73;5.60;;;13.30;73.30;;;16.35;50.08;102048.00;5056289;28;20213;-68
2023/05/24 05:27:54;;;;;;;16.83;5.37;;;13.30;73.90;;;16.33;50.42;102045.50;5056317;28;20252;-66
2023/05/24 05:30:21;;;;;;;16.67;5.40;;;13.30;74.20;;;16.33;50.67;102058.00;5056133;28;20195;-66
2023/05/24 05:32:48;;;;;;;14.17;5.90;;;13.30;74.30;;;16.32;50.72;102053.69;5055497;28;20193;-67
2023/05/24 05:35:15;;;;;;;21.70;6.40;;;13.30;74.70;;;16.33;51.22;102058.00;5055955;28;20221;-68
2023/05/24 05:37:42;;;;;;;11.53;4.20;;;13.30;75.00;;;16.33;51.27;102056.16;5056451;28;20224;-68
2023/05/24 05:40:11;;;;;;;15.87;6.00;;;13.30;75.10;;;16.34;50.96;102056.97;5055708;28;20281;-68
2023/05/24 05:42:38;;;;;;;12.70;5.67;;;13.30;75.50;;;16.35;51.46;102048.00;5055601;28;20627;-68
2023/05/24 05:45:08;;;;;;;23.27;5.30;;;13.30;75.30;;;16.39;51.29;102049.28;5055356;28;20213;-69
2023/05/24 05:47:35;;;;;;;12.67;4.67;;;13.30;75.60;;;16.40;51.57;102046.47;5055235;28;20226;-68
2023/05/24 05:50:02;;;;;;;16.43;5.67;;;13.40;75.70;;;16.45;51.40;102051.25;5055389;28;20197;-67
2023/05/24 05:52:29;;;;;;;20.53;5.43;;;13.40;75.70;;;16.48;51.53;102058.84;5055844;28;20289;-68
2023/05/24 05:54:56;;;;;;;13.97;5.10;;;13.40;75.60;;;16.47;51.42;102051.88;5055360;28;20245;-68
2023/05/24 05:57:23;;;;;;;12.83;5.47;;;13.40;75.70;;;16.45;51.41;102053.91;5054436;28;20224;-67
2023/05/24 05:59:50;;;;;;;16.07;5.17;;;13.40;75.80;;;16.45;51.65;102053.91;5055449;28;20277;-68
2023/05/24 06:02:21;;;;;;;17.97;6.23;;;13.40;76.00;;;16.49;52.13;102060.50;5055322;28;20304;-69
2023/05/24 06:04:49;;;;;;;18.83;6.17;;;13.40;76.80;;;16.52;51.82;102062.84;5054924;28;20682;-68
2023/05/24 06:07:16;;;;;;;13.83;5.23;;;13.50;76.70;;;16.53;51.65;102067.97;5055212;28;20285;-68
2023/05/24 06:09:43;;;;;;;12.67;6.63;;;13.40;76.40;;;16.56;52.01;102062.28;5049055;28;20296;-68
2023/05/24 06:12:10;;;;;;;13.70;5.70;;;13.50;76.80;;;16.62;51.82;102064.22;5044204;28;20266;-68
2023/05/24 06:14:37;;;;;;;13.30;5.80;;;13.60;76.80;;;16.67;51.92;102067.16;5053138;28;20754;-69
2023/05/24 06:17:04;;;;;;;17.93;5.27;;;13.60;76.70;;;16.69;51.89;102069.63;5054980;28;20281;-67
2023/05/24 06:19:33;;;;;;;13.10;5.00;;;13.60;76.70;;;16.70;52.11;102071.28;5049899;28;20204;-68
2023/05/24 06:22:00;;;;;;;18.17;7.53;;;13.60;76.80;;;16.75;52.00;102068.91;5053066;28;20291;-68
2023/05/24 06:24:27;;;;;;;14.47;5.40;;;13.60;77.60;;;16.80;51.89;102074.53;5051036;28;20225;-68
2023/05/24 06:26:54;;;;;;;20.47;5.80;;;13.70;77.00;;;16.84;51.75;102081.13;5046320;28;20251;-68
2023/05/24 06:29:23;;;;;;;20.40;5.97;;;13.70;76.80;;;16.86;52.05;102081.75;5053171;28;20730;-68
2023/05/24 06:31:51;;;;;;;14.13;6.23;;;13.70;76.80;;;16.88;52.00;102085.06;5048468;28;20316;-68
2023/05/24 06:34:21;;;;;;;12.70;6.83;;;13.70;76.80;;;16.91;51.99;102084.69;5053748;28;20217;-66
2023/05/24 06:36:51;;;;;;;22.30;5.90;;;13.80;77.00;;;16.97;52.06;102097.28;5052442;28;20278;-70
2023/05/24 06:39:18;;;;;;;12.80;6.00;;;13.90;77.40;;;17.06;52.21;102090.84;5043128;28;20206;-70
2023/05/24 06:41:46;;;;;;;16.23;5.40;;;14.00;76.90;;;17.10;51.70;102093.97;5045027;28;20226;-69
2023/05/24 06:44:13;;;;;;;24.43;7.10;;;14.00;76.40;;;17.10;51.63;102092.13;5054618;28;20214;-66
2023/05/24 06:46:41;;;;;;;13.10;5.90;;;14.00;76.30;;;17.14;51.60;102093.41;5047920;28;20477;-67
2023/05/24 06:49:11;;;;;;;18.57;6.23;;;14.00;76.30;;;17.17;51.68;102098.38;5039723;28;20596;-68
2023/05/24 06:51:39;;;;;;;21.37;6.77;;;14.00;77.10;;;17.19;51.49;102099.00;5041729;28;20297;-68
2023/05/24 06:54:07;;;;;;;18.63;5.97;;;14.00;76.20;;;17.19;51.37;102101.66;5053201;28;20197;-68
2023/05/24 06:56:34;;;;;;;19.60;5.43;;;14.10;76.10;;;17.19;51.37;102092.84;5044633;28;20225;-66
2023/05/24 06:59:01;;;;;;;20.30;6.27;;;14.10;76.30;;;17.19;51.14;102096.34;5053737;28;20282;-67
2023/05/24 07:01:28;;;;;;;16.43;6.07;;;14.10;75.70;;;17.20;51.38;102106.00;5053969;28;20590;-68
2023/05/24 07:03:55;;;;;;;23.53;6.87;;;14.10;75.90;;;17.24;51.69;102104.59;5053060;28;20233;-68
2023/05/24 07:06:23;;;;;;;22.17;6.60;;;14.20;76.20;;;17.28;51.49;102105.88;5054870;28;20607;-67
2023/05/24 07:08:50;;;;;;;19.03;7.30;;;14.20;76.40;;;17.33;51.52;102102.69;5047397;28;20218;-66
2023/05/24 07:11:19;;;;;;;22.93;7.47;;;14.20;76.20;;;17.37;51.22;102109.28;5054030;28;20190;-68
2023/05/24 07:13:46;;;;;;;21.83;7.43;;;14.20;76.00;;;17.37;51.28;102110.13;5052959;28;20587;-66
2023/05/24 07:16:13;;;;;;;18.67;5.90;;;14.30;75.80;;;17.38;51.21;102109.09;5052326;28;20592;-68
2023/05/24 07:18:40;;;;;;;18.77;5.60;;;14.30;75.80;;;17.40;51.08;102109.72;5052163;28;20261;-67
2023/05/24 07:21:07;;;;;;;41.50;28.87;;;14.30;75.80;;;17.41;51.09;102116.72;5057521;28;20215;-68
2023/05/24 07:23:36;;;;;;;16.40;6.10;;;14.40;75.70;;;17.44;50.91;102121.69;5044442;28;20293;-68
2023/05/24 07:26:04;;;;;;;20.20;6.53;;;14.30;75.50;;;17.49;51.20;102129.09;5034619;28;20309;-67
2023/05/24 07:28:33;;;;;;;18.87;5.57;;;14.40;75.70;;;17.50;50.80;102123.59;5039532;28;20204;-68
2023/05/24 07:31:00;;;;;;;16.73;5.73;;;14.40;75.20;;;17.49;50.62;102131.75;5041194;28;20226;-67
2023/05/24 07:33:27;;;;;;;16.27;5.83;;;14.40;75.10;;;17.49;50.58;102116.63;5048393;28;20228;-69
2023/05/24 07:35:54;;;;;;;16.33;6.03;;;14.40;75.00;;;17.47;50.73;102118.63;5053217;28;20258;-68
2023/05/24 07:38:21;;;;;;;17.57;5.70;;;14.40;75.10;;;17.47;50.94;102123.94;5035954;28;20305;-67
2023/05/24 07:40:48;;;;;;;18.77;6.37;;;14.40;75.20;;;17.49;50.85;102124.59;5047484;28;20194;-68
2023/05/24 07:43:15;;;;;;;16.83;6.50;;;14.40;75.30;;;17.51;51.19;102122.63;5052805;28;20236;-67
2023/05/24 07:45:43;;;;;;;14.43;6.30;;;14.40;75.60;;;17.60;50.85;102123.31;5052277;28;20228;-68
2023/05/24 07:48:10;;;;;;;19.40;7.33;;;14.50;75.50;;;17.65;50.91;102128.91;5034409;28;20269;-67
2023/05/24 07:50:38;;;;;;;23.13;7.43;;;14.60;75.50;;;17.68;50.79;102127.72;5033603;28;20264;-68
2023/05/24 07:53:06;;;;;;;18.27;6.70;;;14.50;75.20;;;17.71;50.84;102133.50;5032670;28;20647;-68
2023/05/24 07:55:32;;;;;;;19.50;5.90;;;14.60;75.50;;;17.72;50.56;102142.31;5052502;28;20216;-69
2023/05/24 07:58:00;;;;;;;17.03;5.90;;;14.60;75.20;;;17.73;50.77;102138.66;5047543;28;20285;-68
2023/05/24 08:00:27;;;;;;;16.07;6.03;;;14.60;75.50;;;17.76;50.70;102143.59;5053357;28;20196;-67
2023/05/24 08:02:56;;;;;;;15.97;6.80;;;14.60;75.40;;;17.79;50.74;102145.88;5052554;28;20592;-67
2023/05/24 08:05:23;;;;;;;14.77;6.97;;;14.70;75.20;;;17.81;50.44;102151.84;5043161;28;20595;-68
2023/05/24 08:07:51;;;;;;;17.50;8.07;;;14.70;75.10;;;17.82;50.52;102150.84;5049842;28;20194;-67
2023/05/24 08:10:18;;;;;;;22.87;7.20;;;14.70;75.10;;;17.85;50.38;102142.47;5052767;28;20190;-67
2023/05/24 08:12:45;;;;;;;21.37;7.03;;;14.70;75.00;;;17.88;50.59;102140.25;5052057;28;20227;-69
2023/05/24 08:15:13;;;;;;;19.47;6.50;;;14.70;75.00;;;17.88;50.38;102144.75;5054021;28;20235;-68
2023/05/24 08:17:40;;;;;;;18.53;6.47;;;14.80;75.00;;;17.89;50.58;102141.09;5042715;28;20202;-69
2023/05/24 08:20:10;;;;;;;16.47;5.60;;;14.80;75.10;;;17.93;50.42;102145.00;5041051;28;20197;-68
2023/05/24 08:22:38;;;;;;;19.13;6.70;;;14.80;75.20;;;17.94;50.40;102141.34;5032909;28;20210;-68
2023/05/24 08:25:06;;;;;;;18.27;7.23;;;14.80;75.00;;;17.95;50.44;102142.97;5032124;28;20273;-68
2023/05/24 08:27:33;;;;;;;21.83;6.60;;;14.80;75.00;;;17.96;50.54;102147.31;5032614;28;20210;-69
2023/05/24 08:30:00;;;;;;;20.50;7.37;;;14.80;75.10;;;18.00;50.08;102148.56;5032646;28;20274;-68
2023/05/24 08:32:29;;;;;;;19.20;7.87;;;14.90;75.20;;;18.07;50.93;102149.47;5037142;28;20236;-68
2023/05/24 08:34:56;;;;;;;20.97;7.67;;;14.90;75.30;;;18.14;50.39;102150.38;5050565;28;20222;-69
2023/05/24 08:37:38;;;;;;;12.87;5.70;;;15.00;75.10;;;18.16;50.24;102151.84;5039762;28;20208;-69
2023/05/24 08:40:08;;;;;;;20.27;6.23;;;15.00;74.70;;;18.16;50.08;102153.69;5033324;28;20195;-68
2023/05/24 08:42:38;;;;;;;20.57;6.93;;;15.10;74.70;;;18.15;50.11;102162.69;5036734;28;20214;-68
2023/05/24 08:45:10;;;;;;;21.37;7.10;;;15.10;74.70;;;18.15;50.26;102168.03;5047351;28;20347;-68
2023/05/24 08:47:38;;;;;;;18.37;7.10;;;15.10;74.90;;;18.14;50.24;102169.03;5055670;28;20193;-68
2023/05/24 08:50:07;;;;;;;14.77;6.23;;;15.10;75.00;;;18.14;50.23;102171.69;5055358;28;20676;-68
2023/05/24 08:52:35;;;;;;;19.43;6.67;;;15.10;75.00;;;18.14;50.29;102169.03;5062686;28;20196;-68
2023/05/24 08:55:06;;;;;;;18.33;5.77;;;15.00;75.00;;;18.12;50.35;102174.56;5055903;28;20241;-68
2023/05/24 08:57:38;;;;;;;21.20;6.27;;;15.10;75.00;;;18.12;50.38;102177.22;5044138;28;20191;-69
2023/05/24 09:00:08;;;;;;;21.97;5.87;;;15.00;74.80;;;18.13;50.39;102175.38;5035273;28;20233;-69
2023/05/24 09:02:37;;;;;;;16.43;6.33;;;15.10;75.00;;;18.14;50.36;102171.69;5041242;28;20214;-68
2023/05/24 09:05:10;;;;;;;17.13;5.73;;;15.00;75.00;;;18.11;50.40;102177.41;5055321;28;20690;-67
2023/05/24 09:07:39;;;;;;;14.80;6.20;;;15.00;75.20;;;18.11;50.44;102177.41;5055646;28;20681;-68
2023/05/24 09:10:09;;;;;;;24.80;7.23;;;15.00;75.10;;;18.09;50.90;102176.78;5069955;28;20255;-69
2023/05/24 09:12:39;;;;;;;17.43;7.83;;;15.00;75.50;;;18.17;50.95;102166.81;5053782;28;20225;-66
2023/05/24 09:15:07;;;;;;;21.93;8.33;;;15.10;75.50;;;18.25;50.89;102168.53;5049501;28;20593;-67
2023/05/24 09:17:36;;;;;;;19.43;9.03;;;15.10;75.30;;;18.32;50.42;102172.09;5058969;28;20186;-68
2023/05/24 09:20:09;;;;;;;22.07;7.87;;;15.20;75.40;;;18.42;50.36;102169.97;5049897;28;20197;-67
2023/05/24 09:22:40;;;;;;;19.53;7.60;;;15.20;75.30;;;18.51;50.26;102174.16;5058520;28;20316;-67
2023/05/24 09:25:13;;;;;;;21.60;6.93;;;15.30;75.30;;;18.61;50.27;102173.84;5054552;28;20225;-67
2023/05/24 09:27:43;;;;;;;22.27;6.80;;;15.40;75.30;;;18.65;49.96;102175.94;5044425;28;20524;-67
2023/05/24 09:30:14;;;;;;;22.87;6.70;;;15.50;75.20;;;18.66;49.87;102182.91;5047985;28;20248;-68
2023/05/24 09:32:55;;;;;;;15.97;5.83;;;15.50;74.90;;;18.64;50.22;102190.28;5058535;28;20182;-68
2023/05/24 09:35:22;;;;;;;19.63;6.07;;;15.50;76.00;;;18.62;50.48;102178.97;5053314;28;20287;-67
2023/05/24 09:37:49;;;;;;;19.97;6.77;;;15.50;75.30;;;18.60;50.38;102183.69;5053916;28;20304;-67
2023/05/24 09:40:20;;;;;;;18.30;6.77;;;15.50;75.50;;;18.59;50.40;102186.56;5055158;28;20299;-67
2023/05/24 09:42:50;;;;;;;22.27;8.17;;;15.50;75.80;;;18.59;50.66;102187.34;5054620;28;20226;-68
2023/05/24 09:45:17;;;;;;;19.67;6.47;;;15.50;76.20;;;18.59;50.99;102192.69;5050220;28;20232;-67
2023/05/24 09:47:45;;;;;;;19.07;6.67;;;15.50;76.50;;;18.59;51.08;102197.22;5043244;28;20248;-67
2023/05/24 09:50:18;;;;;;;18.60;6.63;;;15.50;76.80;;;18.60;51.27;102193.53;5044426;28;20196;-70
2023/05/24 09:52:50;;;;;;;20.47;6.80;;;15.50;77.00;;;18.63;51.10;102198.47;5034626;28;20193;-71
2023/05/24 09:55:26;;;;;;;20.63;6.27;;;15.50;76.80;;;18.67;51.06;102197.91;5055936;28;20217;-71
2023/05/24 09:58:07;;;;;;;18.43;6.07;;;15.50;76.50;;;18.73;50.62;102199.00;5053093;28;20587;-69
2023/05/24 10:00:38;;;;;;;18.80;5.77;;;15.50;76.10;;;18.79;50.72;102203.53;5047912;28;20543;-69
2023/05/24 10:03:10;;;;;;;17.53;7.03;;;15.60;76.00;;;18.87;50.35;102198.88;5052192;28;20215;-68
2023/05/24 10:05:43;;;;;;;14.83;6.83;;;15.60;76.00;;;19.06;50.14;102196.59;5049384;28;20616;-67
2023/05/24 10:08:13;;;;;;;28.03;7.77;;;15.60;75.60;;;19.64;49.52;102196.16;5049958;28;20533;-68
2023/05/24 10:10:42;;;;;;;17.90;6.67;;;15.80;75.50;;;20.21;47.79;102191.22;5040070;28;20235;-68